createdAt,value
2018-07-05T00:02:03.829Z,10.93
2018-07-05T00:04:43.467Z,7.63
2018-07-05T00:07:23.066Z,9.97
2018-07-05T00:10:02.664Z,7.50
2018-07-05T00:12:42.412Z,8.93
2018-07-05T00:15:21.960Z,7.47
2018-07-05T00:18:01.690Z,7.33
2018-07-05T00:20:41.303Z,6.97
2018-07-05T00:23:20.980Z,8.77
2018-07-05T00:26:00.640Z,9.33
2018-07-05T00:28:40.252Z,11.80
2018-07-05T00:31:19.823Z,7.63
2018-07-05T00:33:59.531Z,9.23
2018-07-05T00:36:39.004Z,8.70
2018-07-05T00:39:18.740Z,11.67
2018-07-05T00:41:52.504Z,8.70
2018-07-05T00:44:32.201Z,9.83
2018-07-05T00:47:11.765Z,9.23
2018-07-05T00:49:51.438Z,9.23
2018-07-05T00:52:30.923Z,17.43
2018-07-05T00:55:10.601Z,12.03
2018-07-05T00:57:50.538Z,8.23
2018-07-05T01:00:30.177Z,10.63
2018-07-05T01:03:09.863Z,9.10
2018-07-05T01:05:49.643Z,10.77
2018-07-05T01:08:29.371Z,14.03
2018-07-05T01:11:08.976Z,12.70
2018-07-05T01:13:48.623Z,9.17
2018-07-05T01:16:28.264Z,9.10
2018-07-05T01:19:07.907Z,8.03
2018-07-05T01:21:47.541Z,9.07
2018-07-05T01:24:27.055Z,11.70
2018-07-05T01:27:06.687Z,13.03
2018-07-05T01:29:46.295Z,13.43
2018-07-05T01:32:25.940Z,11.07
2018-07-05T01:35:05.706Z,12.13
2018-07-05T01:37:39.309Z,10.00
2018-07-05T01:40:19.035Z,11.03
2018-07-05T01:42:58.655Z,10.43
2018-07-05T01:45:38.435Z,10.30
2018-07-05T01:48:12.023Z,12.30
2018-07-05T01:50:51.735Z,15.20
2018-07-05T01:53:31.493Z,12.37
2018-07-05T01:56:11.265Z,12.20
2018-07-05T01:58:44.875Z,11.93
2018-07-05T02:01:24.551Z,10.97
2018-07-05T02:04:04.327Z,12.07
2018-07-05T02:06:44.042Z,11.87
2018-07-05T02:09:23.678Z,11.70
2018-07-05T02:12:03.361Z,13.90
2018-07-05T02:14:43.071Z,12.47
2018-07-05T02:17:22.623Z,14.83
2018-07-05T02:20:02.239Z,13.40
2018-07-05T02:22:41.895Z,14.37
2018-07-05T02:25:21.531Z,14.10
2018-07-05T02:28:01.133Z,16.90
2018-07-05T02:30:34.752Z,16.97
2018-07-05T02:33:14.494Z,17.50
2018-07-05T02:35:54.120Z,12.03
2018-07-05T02:38:27.827Z,13.70
2018-07-05T02:41:07.513Z,15.10
2018-07-05T02:43:47.262Z,13.87
2018-07-05T02:46:26.970Z,17.27
2018-07-05T02:49:06.537Z,14.60
2018-07-05T02:51:46.232Z,16.80
2018-07-05T02:54:25.869Z,13.07
2018-07-05T02:57:05.524Z,17.20
2018-07-05T02:59:39.263Z,15.40
2018-07-05T03:02:18.975Z,15.80
2018-07-05T03:04:52.696Z,16.10
2018-07-05T03:07:32.281Z,14.27
2018-07-05T03:10:12.002Z,18.20
2018-07-05T03:12:51.756Z,20.00
2018-07-05T03:15:31.440Z,16.80
2018-07-05T03:18:10.987Z,14.33
2018-07-05T03:20:50.632Z,16.20
2018-07-05T03:23:24.428Z,14.33
2018-07-05T03:26:04.218Z,15.80
2018-07-05T03:28:43.973Z,17.73
2018-07-05T03:31:23.680Z,16.83
2018-07-05T03:33:57.380Z,14.90
2018-07-05T03:36:37.097Z,17.50
2018-07-05T03:39:16.988Z,15.80
2018-07-05T03:41:56.635Z,18.00
2018-07-05T03:44:36.548Z,17.40
2018-07-05T03:47:16.302Z,19.63
2018-07-05T03:49:49.890Z,13.50
2018-07-05T03:52:29.683Z,16.43
2018-07-05T03:55:09.399Z,15.50
2018-07-05T03:57:48.910Z,17.63
2018-07-05T04:00:28.459Z,17.57
2018-07-05T04:03:08.132Z,16.00
2018-07-05T04:05:47.888Z,15.33
2018-07-05T04:08:27.715Z,15.57
2018-07-05T04:11:01.555Z,14.30
2018-07-05T04:13:41.239Z,16.30
2018-07-05T04:16:20.819Z,14.93
2018-07-05T04:19:00.559Z,14.07
2018-07-05T04:21:40.224Z,14.90
2018-07-05T04:24:20.248Z,16.07
2018-07-05T04:26:59.864Z,15.00
2018-07-05T04:29:39.503Z,16.17
2018-07-05T04:32:19.184Z,22.23
2018-07-05T04:34:58.913Z,18.47
2018-07-05T04:37:38.536Z,20.40
2018-07-05T04:40:18.197Z,17.53
2018-07-05T04:42:57.912Z,20.50
2018-07-05T04:45:38.641Z,16.20
2018-07-05T04:48:18.264Z,17.50
2018-07-05T04:50:57.879Z,12.93
2018-07-05T04:53:31.655Z,15.57
2018-07-05T04:56:11.383Z,12.73
2018-07-05T04:58:51.198Z,11.50
2018-07-05T05:01:30.839Z,12.63
2018-07-05T05:04:10.454Z,15.00
2018-07-05T05:06:50.099Z,13.50
2018-07-05T05:09:30.104Z,13.70
2018-07-05T05:12:09.844Z,14.17
2018-07-05T05:14:49.633Z,13.17
2018-07-05T05:17:29.240Z,19.43
2018-07-05T05:20:08.770Z,14.53
2018-07-05T05:22:48.410Z,12.20
2018-07-05T05:25:28.103Z,17.70
2018-07-05T05:28:08.144Z,18.50
2018-07-05T05:30:47.687Z,16.40
2018-07-05T05:33:27.345Z,15.73
2018-07-05T05:36:07.089Z,13.63
2018-07-05T05:38:46.699Z,13.73
2018-07-05T05:41:26.340Z,13.27
2018-07-05T05:44:05.972Z,13.53
2018-07-05T05:46:45.540Z,13.90
2018-07-05T05:49:25.247Z,11.97
2018-07-05T05:52:04.852Z,13.73
2018-07-05T05:54:44.559Z,13.67
2018-07-05T05:57:24.315Z,13.03
2018-07-05T06:00:03.937Z,12.00
2018-07-05T06:02:44.865Z,13.67
2018-07-05T06:05:24.532Z,12.80
2018-07-05T06:08:04.325Z,13.03
2018-07-05T06:10:43.948Z,11.97
2018-07-05T06:13:23.607Z,12.23
2018-07-05T06:16:03.377Z,12.20
2018-07-05T06:18:43.180Z,14.40
2018-07-05T06:21:23.112Z,18.70
2018-07-05T06:24:02.686Z,15.23
2018-07-05T06:26:42.348Z,15.47
2018-07-05T06:29:15.999Z,14.13
2018-07-05T06:31:55.640Z,16.93
2018-07-05T06:34:35.879Z,16.43
2018-07-05T06:37:15.510Z,14.20
2018-07-05T06:39:55.096Z,12.20
2018-07-05T06:42:34.767Z,14.17
2018-07-05T06:45:14.959Z,12.67
2018-07-05T06:47:54.721Z,15.77
2018-07-05T06:50:34.731Z,17.20
2018-07-05T06:53:14.387Z,13.00
2018-07-05T06:55:54.027Z,11.30
2018-07-05T06:58:33.647Z,12.07
2018-07-05T07:01:13.529Z,10.20
2018-07-05T07:03:53.275Z,10.20
2018-07-05T07:06:33.132Z,11.87
2018-07-05T07:09:12.839Z,9.90
2018-07-05T07:11:46.534Z,8.87
2018-07-05T07:14:20.202Z,10.53
2018-07-05T07:16:59.813Z,10.10
2018-07-05T07:19:39.526Z,9.63
2018-07-05T07:22:13.155Z,10.37
2018-07-05T07:24:52.940Z,10.60
2018-07-05T07:27:32.611Z,8.90
2018-07-05T07:30:06.305Z,10.13
2018-07-05T07:32:46.119Z,10.20
2018-07-05T07:35:25.868Z,8.33
2018-07-05T07:38:05.396Z,9.27
2018-07-05T07:40:45.084Z,9.70
2018-07-05T07:43:12.542Z,11.00
2018-07-05T07:45:40.061Z,7.53
2018-07-05T07:48:07.676Z,7.63
2018-07-05T07:50:34.881Z,11.30
2018-07-05T07:53:02.073Z,10.60
2018-07-05T07:55:29.280Z,8.83
2018-07-05T07:57:56.505Z,11.17
2018-07-05T08:00:23.710Z,9.30
2018-07-05T08:02:50.903Z,9.53
2018-07-05T08:05:18.562Z,7.97
2018-07-05T08:07:45.765Z,7.60
2018-07-05T08:10:12.964Z,8.67
2018-07-05T08:12:40.155Z,13.33
2018-07-05T08:15:07.413Z,13.00
2018-07-05T08:17:34.565Z,13.00
2018-07-05T08:20:01.780Z,10.10
2018-07-05T08:22:28.983Z,10.23
2018-07-05T08:24:56.439Z,7.50
2018-07-05T08:27:23.925Z,10.50
2018-07-05T08:29:51.116Z,6.60
2018-07-05T08:32:18.341Z,9.77
2018-07-05T08:34:45.519Z,9.00
2018-07-05T08:37:12.979Z,9.47
2018-07-05T08:39:40.135Z,10.10
2018-07-05T08:42:07.384Z,9.00
2018-07-05T08:44:34.687Z,16.23
2018-07-05T08:47:01.870Z,9.10
2018-07-05T08:49:29.064Z,9.63
2018-07-05T08:51:56.531Z,9.30
2018-07-05T08:54:23.753Z,11.40
2018-07-05T08:56:51.012Z,9.03
2018-07-05T08:59:18.307Z,10.70
2018-07-05T09:01:45.509Z,10.03
2018-07-05T09:04:12.712Z,7.60
2018-07-05T09:06:40.268Z,7.43
2018-07-05T09:09:07.522Z,7.03
2018-07-05T09:11:34.727Z,8.40
2018-07-05T09:14:01.911Z,6.40
2018-07-05T09:16:29.111Z,8.33
2018-07-05T09:18:56.364Z,6.10
2018-07-05T09:21:23.560Z,5.53
2018-07-05T09:23:50.785Z,6.30
2018-07-05T09:26:17.965Z,7.17
2018-07-05T09:28:45.169Z,4.97
2018-07-05T09:31:12.424Z,5.33
2018-07-05T09:33:39.563Z,3.50
2018-07-05T09:36:06.803Z,2.73
2018-07-05T09:38:33.969Z,3.47
2018-07-05T09:41:01.184Z,3.27
2018-07-05T09:43:28.396Z,4.80
2018-07-05T09:45:55.850Z,3.97
2018-07-05T09:48:23.312Z,2.90
2018-07-05T09:50:50.499Z,2.90
2018-07-05T09:53:17.700Z,3.50
2018-07-05T09:55:44.904Z,6.83
2018-07-05T09:58:12.091Z,2.77
2018-07-05T10:00:44.519Z,4.13
2018-07-05T10:03:11.732Z,5.37
2018-07-05T10:05:39.200Z,4.80
2018-07-05T10:08:06.392Z,2.47
2018-07-05T10:10:33.796Z,2.30
2018-07-05T10:13:01.357Z,4.77
2018-07-05T10:15:28.715Z,2.60
2018-07-05T10:17:56.193Z,2.00
2018-07-05T10:20:23.437Z,1.70
2018-07-05T10:22:50.664Z,1.00
2018-07-05T10:25:18.145Z,1.67
2018-07-05T10:27:45.336Z,1.70
2018-07-05T10:30:25.029Z,1.80
2018-07-05T10:32:58.865Z,1.70
2018-07-05T10:35:25.963Z,1.70
2018-07-05T10:37:59.504Z,1.90
2018-07-05T10:40:40.448Z,1.60
2018-07-05T10:43:14.009Z,2.93
2018-07-05T10:45:53.713Z,1.60
2018-07-05T10:48:33.308Z,1.47
2018-07-05T10:51:13.295Z,1.83
2018-07-05T10:53:53.001Z,2.80
2018-07-05T10:56:32.618Z,1.47
2018-07-05T10:59:12.558Z,1.97
2018-07-05T11:01:52.471Z,3.23
2018-07-05T11:04:26.120Z,1.40
2018-07-05T11:07:05.823Z,1.13
2018-07-05T11:09:45.536Z,0.90
2018-07-05T11:12:25.204Z,1.60
2018-07-05T11:14:58.916Z,1.67
2018-07-05T11:17:38.649Z,2.00
2018-07-05T11:20:18.271Z,2.10
2018-07-05T11:22:57.901Z,1.10
2018-07-05T11:25:37.709Z,2.20
2018-07-05T11:28:17.716Z,1.60
2018-07-05T11:30:51.305Z,1.47
2018-07-05T11:33:31.077Z,1.70
2018-07-05T11:36:04.659Z,2.83
2018-07-05T11:38:38.627Z,2.33
2018-07-05T11:41:17.943Z,2.33
2018-07-05T11:43:57.641Z,2.33
2018-07-05T11:46:37.312Z,1.80
2018-07-05T11:49:11.010Z,2.10
2018-07-05T11:51:50.959Z,2.03
2018-07-05T11:54:24.671Z,3.60
2018-07-05T11:57:04.404Z,2.30
2018-07-05T11:59:38.355Z,1.60
2018-07-05T12:02:17.900Z,1.20
2018-07-05T12:04:57.529Z,2.10
2018-07-05T12:07:37.131Z,1.37
2018-07-05T12:10:10.828Z,2.70
2018-07-05T12:12:50.524Z,1.00
2018-07-05T12:15:30.245Z,2.03
2018-07-05T12:18:09.992Z,1.57
2018-07-05T12:20:49.630Z,3.60
2018-07-05T12:23:29.368Z,4.00
2018-07-05T12:26:09.040Z,2.40
2018-07-05T12:28:48.742Z,1.60
2018-07-05T12:31:22.431Z,1.20
2018-07-05T12:34:01.997Z,1.83
2018-07-05T12:36:41.585Z,1.30
2018-07-05T12:39:21.261Z,1.73
2018-07-05T12:42:00.881Z,4.00
2018-07-05T12:44:40.556Z,3.00
2018-07-05T12:47:14.168Z,2.43
2018-07-05T12:49:53.899Z,2.00
2018-07-05T12:52:27.456Z,1.70
2018-07-05T12:55:07.137Z,2.20
2018-07-05T12:57:40.849Z,1.57
2018-07-05T13:00:20.492Z,1.40
2018-07-05T13:02:54.171Z,2.30
2018-07-05T13:05:33.724Z,2.10
2018-07-05T13:08:07.211Z,3.70
2018-07-05T13:10:46.860Z,3.37
2018-07-05T13:13:26.483Z,4.10
2018-07-05T13:16:06.012Z,3.77
2018-07-05T13:18:45.803Z,3.70
2018-07-05T13:21:25.286Z,2.20
2018-07-05T13:24:05.069Z,1.90
2018-07-05T13:26:38.789Z,2.57
2018-07-05T13:29:18.336Z,3.63
2018-07-05T13:31:57.831Z,3.00
2018-07-05T13:34:37.514Z,2.83
2018-07-05T13:37:17.350Z,3.70
2018-07-05T13:39:57.169Z,2.90
2018-07-05T13:42:36.903Z,2.60
2018-07-05T13:45:17.071Z,4.07
2018-07-05T13:47:56.824Z,3.30
2018-07-05T13:50:36.612Z,4.27
2018-07-05T13:53:16.353Z,4.40
2018-07-05T13:55:56.007Z,3.10
2018-07-05T13:58:35.720Z,3.70
2018-07-05T14:01:09.450Z,3.17
2018-07-05T14:03:49.063Z,3.33
2018-07-05T14:06:22.707Z,2.37
2018-07-05T14:09:02.405Z,2.77
2018-07-05T14:11:35.975Z,3.23
2018-07-05T14:14:15.731Z,2.30
2018-07-05T14:16:55.383Z,2.83
2018-07-05T14:19:35.031Z,2.57
2018-07-05T14:22:08.557Z,2.63
2018-07-05T14:24:48.453Z,2.20
2018-07-05T14:27:22.035Z,2.00
2018-07-05T14:30:01.557Z,1.47
2018-07-05T14:32:41.126Z,2.30
2018-07-05T14:35:20.924Z,1.67
2018-07-05T14:38:00.433Z,1.90
2018-07-05T14:40:40.082Z,2.27
2018-07-05T14:43:13.760Z,1.53
2018-07-05T14:45:53.424Z,1.90
2018-07-05T14:48:33.092Z,2.00
2018-07-05T14:51:12.677Z,1.83
2018-07-05T14:53:52.379Z,2.93
2018-07-05T14:56:31.973Z,1.70
2018-07-05T14:59:11.529Z,1.70
2018-07-05T15:01:51.192Z,2.30
2018-07-05T15:04:31.007Z,4.60
2018-07-05T15:07:10.639Z,3.23
2018-07-05T15:09:50.194Z,2.90
2018-07-05T15:12:29.847Z,3.77
2018-07-05T15:15:09.480Z,3.70
2018-07-05T15:17:49.145Z,4.30
2018-07-05T15:20:28.780Z,3.63
2018-07-05T15:23:08.275Z,5.60
2018-07-05T15:25:47.852Z,2.50
2018-07-05T15:28:27.607Z,2.00
2018-07-05T15:31:01.159Z,3.63
2018-07-05T15:33:40.972Z,2.43
2018-07-05T15:36:20.577Z,2.87
2018-07-05T15:39:00.210Z,2.67
2018-07-05T15:41:39.914Z,2.50
2018-07-05T15:44:19.706Z,2.57
2018-07-05T15:46:59.375Z,2.80
2018-07-05T15:49:32.991Z,5.37
2018-07-05T15:52:12.571Z,2.50
2018-07-05T15:54:52.225Z,2.30
2018-07-05T15:57:31.793Z,2.33
2018-07-05T16:00:05.421Z,1.90
2018-07-05T16:02:45.118Z,2.40
2018-07-05T16:05:24.767Z,2.13
2018-07-05T16:08:04.531Z,2.80
2018-07-05T16:10:38.248Z,2.60
2018-07-05T16:13:18.036Z,4.73
2018-07-05T16:15:57.729Z,2.60
2018-07-05T16:18:37.420Z,2.23
2018-07-05T16:21:16.971Z,4.13
2018-07-05T16:23:56.652Z,2.20
2018-07-05T16:26:36.283Z,2.60
2018-07-05T16:29:09.803Z,3.30
2018-07-05T16:31:49.469Z,2.50
2018-07-05T16:34:29.313Z,2.27
2018-07-05T16:37:09.069Z,2.00
2018-07-05T16:39:49.209Z,2.83
2018-07-05T16:42:28.719Z,1.87
2018-07-05T16:45:08.348Z,3.80
2018-07-05T16:47:41.907Z,2.80
2018-07-05T16:50:21.668Z,7.47
2018-07-05T16:53:01.142Z,18.07
2018-07-05T16:55:34.795Z,5.23
2018-07-05T16:58:14.365Z,2.77
2018-07-05T17:00:54.052Z,2.93
2018-07-05T17:03:33.975Z,2.97
2018-07-05T17:06:07.543Z,2.07
2018-07-05T17:08:47.225Z,2.20
2018-07-05T17:11:20.927Z,2.00
2018-07-05T17:13:54.593Z,2.67
2018-07-05T17:16:34.189Z,3.53
2018-07-05T17:19:13.941Z,1.60
2018-07-05T17:21:53.551Z,3.93
2018-07-05T17:24:27.265Z,2.70
2018-07-05T17:27:06.932Z,2.50
2018-07-05T17:29:46.427Z,2.13
2018-07-05T17:32:20.020Z,16.93
2018-07-05T17:34:59.663Z,2.47
2018-07-05T17:37:33.232Z,2.00
2018-07-05T17:40:12.900Z,2.03
2018-07-05T17:42:52.616Z,2.10
2018-07-05T17:45:32.248Z,2.90
2018-07-05T17:48:11.967Z,2.23
2018-07-05T17:50:51.635Z,2.30
2018-07-05T17:53:31.629Z,4.70
2018-07-05T17:56:11.292Z,4.10
2018-07-05T17:58:50.868Z,4.00
2018-07-05T18:01:30.562Z,2.33
2018-07-05T18:04:08.795Z,2.20
2018-07-05T18:06:48.341Z,3.00
2018-07-05T18:09:27.985Z,2.17
2018-07-05T18:12:07.596Z,2.83
2018-07-05T18:14:41.310Z,2.20
2018-07-05T18:17:21.095Z,4.67
2018-07-05T18:20:00.856Z,2.50
2018-07-05T18:22:40.549Z,2.83
2018-07-05T18:25:20.267Z,2.50
2018-07-05T18:28:00.073Z,3.03
2018-07-05T18:30:39.653Z,3.77
2018-07-05T18:33:19.334Z,3.13
2018-07-05T18:35:59.069Z,2.70
2018-07-05T18:38:38.669Z,2.93
2018-07-05T18:41:18.395Z,3.30
2018-07-05T18:43:58.100Z,2.50
2018-07-05T18:46:37.840Z,2.40
2018-07-05T18:49:11.539Z,2.63
2018-07-05T18:51:51.136Z,3.17
2018-07-05T18:54:30.831Z,3.90
2018-07-05T18:57:10.727Z,2.53
2018-07-05T18:59:50.272Z,17.93
2018-07-05T19:02:29.965Z,2.80
2018-07-05T19:05:09.728Z,7.23
2018-07-05T19:07:49.452Z,2.97
2018-07-05T19:10:29.119Z,4.07
2018-07-05T19:13:09.265Z,5.00
2018-07-05T19:15:48.873Z,2.60
2018-07-05T19:18:22.364Z,4.57
2018-07-05T19:25:49.980Z,6.17
2018-07-05T19:28:30.304Z,11.93
2018-07-05T19:31:10.025Z,3.77
2018-07-05T19:33:49.655Z,3.70
2018-07-05T19:36:29.223Z,4.10
2018-07-05T19:39:08.929Z,5.37
2018-07-05T19:41:48.486Z,4.40
2018-07-05T19:44:28.181Z,4.37
2018-07-05T19:47:07.934Z,4.03
2018-07-05T19:49:47.468Z,9.17
2018-07-05T19:52:27.086Z,5.70
2018-07-05T19:55:06.759Z,6.70
2018-07-05T19:57:46.340Z,7.90
2018-07-05T20:00:25.960Z,8.40
2018-07-05T20:03:05.709Z,8.63
2018-07-05T20:05:45.569Z,10.97
2018-07-05T20:08:25.277Z,8.80
2018-07-05T20:11:04.901Z,7.70
2018-07-05T20:13:39.769Z,10.17
2018-07-05T20:16:19.388Z,12.60
2018-07-05T20:18:59.344Z,9.17
2018-07-05T20:21:39.175Z,8.13
2018-07-05T20:24:19.042Z,11.10
2018-07-05T20:26:58.668Z,9.23
2018-07-05T20:29:38.345Z,8.50
2018-07-05T20:32:18.052Z,13.17
2018-07-05T20:34:57.708Z,10.70
2018-07-05T20:37:37.439Z,11.67
2018-07-05T20:40:11.232Z,11.47
2018-07-05T20:42:50.837Z,9.67
2018-07-05T20:45:31.170Z,10.63
2018-07-05T20:48:10.715Z,9.30
2018-07-05T20:50:50.338Z,9.53
2018-07-05T20:53:29.998Z,9.23
2018-07-05T20:56:09.824Z,9.53
2018-07-05T20:58:43.433Z,15.30
2018-07-05T21:01:23.220Z,9.83
2018-07-05T21:04:03.003Z,8.37
2018-07-05T21:06:42.487Z,8.57
2018-07-05T21:09:22.125Z,9.77
2018-07-05T21:12:01.765Z,9.63
2018-07-05T21:14:41.381Z,12.80
2018-07-05T21:17:21.164Z,11.30
2018-07-05T21:20:00.760Z,9.33
2018-07-05T21:22:40.485Z,8.43
2018-07-05T21:25:20.140Z,9.43
2018-07-05T21:27:59.640Z,8.87
2018-07-05T21:30:39.324Z,9.20
2018-07-05T21:33:12.934Z,10.30
2018-07-05T21:35:52.460Z,10.70
2018-07-05T21:38:32.211Z,10.20
2018-07-05T21:41:11.943Z,12.80
2018-07-05T21:43:52.088Z,11.50
2018-07-05T21:46:31.637Z,12.53
2018-07-05T21:49:11.180Z,11.10
2018-07-05T21:51:44.887Z,10.40
2018-07-05T21:54:19.222Z,12.13
2018-07-05T21:56:58.633Z,13.73
2018-07-05T21:59:38.615Z,13.37
2018-07-05T22:02:18.360Z,13.07
2018-07-05T22:04:58.046Z,13.20
2018-07-05T22:07:37.874Z,12.67
2018-07-05T22:10:17.601Z,12.70
2018-07-05T22:12:57.384Z,16.23
2018-07-05T22:15:37.076Z,17.40
2018-07-05T22:18:22.377Z,14.47
2018-07-05T22:21:07.460Z,14.70
2018-07-05T22:23:52.689Z,16.47
2018-07-05T22:26:36.585Z,17.97
2018-07-05T22:29:21.815Z,16.53
2018-07-05T22:32:01.425Z,19.63
2018-07-05T22:34:41.045Z,20.97
2018-07-05T22:37:20.664Z,22.27
2018-07-05T22:40:00.328Z,23.77
2018-07-05T22:42:40.043Z,27.07
2018-07-05T22:45:19.755Z,24.63
2018-07-05T22:47:53.443Z,24.90
2018-07-05T22:50:33.728Z,22.23
2018-07-05T22:53:13.306Z,22.30
2018-07-05T22:55:53.519Z,29.67
2018-07-05T22:58:33.319Z,24.97
2018-07-05T23:01:13.312Z,26.17
2018-07-05T23:03:52.973Z,23.77
2018-07-05T23:06:32.612Z,25.33
2018-07-05T23:09:12.384Z,22.73
2018-07-05T23:11:52.091Z,20.70
2018-07-05T23:14:31.851Z,17.83
2018-07-05T23:17:11.553Z,17.90
2018-07-05T23:19:51.104Z,20.83
2018-07-05T23:22:30.764Z,17.70
2018-07-05T23:25:10.493Z,18.30
2018-07-05T23:27:44.125Z,20.60
2018-07-05T23:30:23.704Z,22.83
2018-07-05T23:33:03.359Z,23.80
2018-07-05T23:35:42.931Z,24.00
2018-07-05T23:38:22.617Z,23.97
2018-07-05T23:41:02.314Z,19.57
2018-07-05T23:43:41.949Z,24.40
2018-07-05T23:46:21.555Z,22.40
2018-07-05T23:49:01.329Z,24.23
2018-07-05T23:51:34.857Z,25.80
2018-07-05T23:54:14.432Z,22.50
2018-07-05T23:56:53.984Z,23.00
2018-07-05T23:59:33.712Z,24.30
